Time;durP1;ratioP1;P1;durP2;ratioP2;P2;SDS_P1;SDS_P2;PMS_P1;PMS_P2;Temp;Humidity;BMP_temperature;BMP_pressure;BME280_temperature;BME280_humidity;BME280_pressure;Samples;Min_cycle;Max_cycle;Signal;HPM_P1;HPM_P2
2022/09/13 00:00:20;;;;;;;19.60;10.57;;;20.40;99.90;;;;;;4992561;28;20031;-72
2022/09/13 00:02:46;;;;;;;19.83;10.55;;;20.30;99.90;;;;;;4992962;28;20092;-70
2022/09/13 00:05:11;;;;;;;18.35;10.48;;;20.30;99.90;;;;;;4992322;28;20499;-69
2022/09/13 00:07:37;;;;;;;17.83;9.35;;;20.30;99.90;;;;;;4992104;28;20037;-71
2022/09/13 00:10:03;;;;;;;18.70;10.60;;;20.30;99.90;;;;;;4990582;28;20044;-72
2022/09/13 00:12:29;;;;;;;16.38;9.30;;;20.30;99.90;;;;;;4986014;28;20042;-71
2022/09/13 00:14:54;;;;;;;17.95;10.07;;;20.30;99.90;;;;;;4989017;28;20026;-71
2022/09/13 00:17:20;;;;;;;17.40;9.30;;;20.30;99.90;;;;;;4992627;28;20202;-71
2022/09/13 00:19:46;;;;;;;15.98;8.93;;;20.20;99.90;;;;;;4989829;28;20030;-70
2022/09/13 00:22:11;;;;;;;18.88;10.68;;;20.20;99.90;;;;;;4992050;28;20023;-70
2022/09/13 00:24:37;;;;;;;19.23;10.20;;;20.20;99.90;;;;;;4986912;28;20030;-71
2022/09/13 00:27:03;;;;;;;13.57;7.95;;;20.20;99.90;;;;;;4989007;28;20028;-70
2022/09/13 00:29:28;;;;;;;17.10;8.35;;;20.20;99.90;;;;;;4991485;28;20089;-71
2022/09/13 00:31:54;;;;;;;16.88;8.40;;;20.20;99.90;;;;;;4989773;28;20046;-71
2022/09/13 00:34:19;;;;;;;18.70;8.43;;;20.20;99.90;;;;;;4987710;28;20022;-71
2022/09/13 00:36:45;;;;;;;15.30;8.35;;;20.20;99.90;;;;;;4989237;28;20117;-71
2022/09/13 00:39:11;;;;;;;16.08;7.40;;;20.10;99.90;;;;;;4989385;28;20061;-71
2022/09/13 00:41:37;;;;;;;14.02;7.55;;;20.10;99.90;;;;;;4987828;28;20026;-70
2022/09/13 00:44:05;;;;;;;15.18;8.63;;;20.10;99.90;;;;;;4989667;28;20045;-70
2022/09/13 00:46:43;;;;;;;15.70;8.25;;;20.10;99.90;;;;;;4987015;28;20046;-69
2022/09/13 00:49:17;;;;;;;14.02;7.90;;;20.10;99.90;;;;;;4987223;28;20109;-70
2022/09/13 00:51:48;;;;;;;13.77;7.53;;;20.10;99.90;;;;;;4990796;28;20041;-68
2022/09/13 00:54:16;;;;;;;18.90;8.65;;;20.00;99.90;;;;;;4992972;28;20116;-71
2022/09/13 00:56:48;;;;;;;17.05;9.10;;;20.00;99.90;;;;;;4990765;28;20026;-70
2022/09/13 00:59:21;;;;;;;16.83;8.40;;;20.00;99.90;;;;;;4992675;28;20025;-70
2022/09/13 01:01:50;;;;;;;16.15;8.55;;;20.00;99.90;;;;;;4988143;28;20443;-70
2022/09/13 01:04:18;;;;;;;12.30;7.50;;;20.00;99.90;;;;;;4992781;28;20069;-69
2022/09/13 01:06:44;;;;;;;16.80;8.57;;;20.00;99.90;;;;;;4992367;28;20031;-69
2022/09/13 01:09:11;;;;;;;14.35;8.07;;;20.00;99.90;;;;;;4992682;28;20093;-70
2022/09/13 01:11:47;;;;;;;16.25;7.47;;;20.00;99.90;;;;;;4989397;28;20039;-71
2022/09/13 01:14:14;;;;;;;16.08;7.47;;;20.00;99.90;;;;;;4989472;28;20018;-70
2022/09/13 01:16:40;;;;;;;14.55;7.65;;;20.00;99.90;;;;;;4988703;28;20026;-70
2022/09/13 01:19:06;;;;;;;17.10;8.30;;;20.00;99.90;;;;;;4989339;28;20101;-69
2022/09/13 01:21:53;;;;;;;17.05;7.68;;;20.00;99.90;;;;;;5000827;28;20093;-68
2022/09/13 01:24:36;;;;;;;13.38;7.97;;;20.00;99.90;;;;;;4994056;28;20022;-70
2022/09/13 01:27:24;;;;;;;14.55;7.90;;;20.10;99.90;;;;;;4990787;28;20026;-70
2022/09/13 01:30:13;;;;;;;13.98;7.85;;;20.00;99.90;;;;;;4980426;28;20093;-69
2022/09/13 01:32:48;;;;;;;16.92;8.50;;;20.10;99.90;;;;;;4992108;28;20125;-70
2022/09/13 01:35:32;;;;;;;13.65;7.20;;;20.10;99.90;;;;;;4975758;28;20516;-71
2022/09/13 01:38:16;;;;;;;15.45;7.47;;;20.00;99.90;;;;;;4983011;28;20040;-71
2022/09/13 01:41:02;;;;;;;13.63;7.32;;;20.00;99.90;;;;;;4992424;28;20397;-72
2022/09/13 01:43:38;;;;;;;16.73;8.30;;;19.90;99.90;;;;;;4991926;28;20019;-70
2022/09/13 01:46:40;;;;;;;15.65;7.70;;;19.90;99.90;;;;;;4992348;28;20027;-72
2022/09/13 01:49:20;;;;;;;21.30;10.25;;;19.80;99.90;;;;;;4992211;28;20018;-70
2022/09/13 01:51:56;;;;;;;15.27;8.32;;;19.80;99.90;;;;;;4990404;28;20041;-71
2022/09/13 01:54:24;;;;;;;17.45;8.50;;;19.80;99.90;;;;;;4986361;28;20105;-69
2022/09/13 01:57:05;;;;;;;13.77;7.10;;;19.80;99.90;;;;;;4980670;28;20035;-70
2022/09/13 01:59:38;;;;;;;15.65;7.97;;;19.80;99.90;;;;;;4988261;28;20412;-69
2022/09/13 02:02:41;;;;;;;16.38;7.90;;;19.90;99.90;;;;;;4990823;28;20105;-71
2022/09/13 02:05:13;;;;;;;12.20;7.47;;;19.90;99.90;;;;;;4970003;28;20038;-69
2022/09/13 02:07:50;;;;;;;14.32;7.20;;;19.90;99.90;;;;;;4984084;28;20022;-69
2022/09/13 02:10:24;;;;;;;13.63;7.68;;;19.90;99.90;;;;;;4984281;28;20082;-70
2022/09/13 02:12:51;;;;;;;13.50;6.60;;;19.90;99.90;;;;;;4993048;28;20768;-69
2022/09/13 02:15:24;;;;;;;15.20;7.25;;;20.00;99.90;;;;;;4995492;28;20044;-70
2022/09/13 02:18:08;;;;;;;13.20;7.77;;;20.00;99.90;;;;;;4985956;28;20465;-72
2022/09/13 02:20:37;;;;;;;15.15;7.38;;;19.90;99.90;;;;;;4991416;28;20101;-70
2022/09/13 02:23:12;;;;;;;11.55;6.28;;;19.90;99.90;;;;;;4992015;28;20030;-71
2022/09/13 02:25:39;;;;;;;10.65;5.88;;;19.90;99.90;;;;;;4995199;28;20018;-70
2022/09/13 02:28:09;;;;;;;9.57;5.78;;;19.90;99.90;;;;;;4988740;28;20031;-71
2022/09/13 02:30:40;;;;;;;10.35;5.10;;;19.90;99.90;;;;;;4995358;28;20031;-70
2022/09/13 02:33:20;;;;;;;9.60;5.18;;;19.80;99.90;;;;;;4975692;28;20027;-71
2022/09/13 02:35:52;;;;;;;11.05;5.05;;;19.90;99.90;;;;;;4984635;28;20030;-71
2022/09/13 02:38:24;;;;;;;10.00;4.97;;;19.80;99.90;;;;;;4995328;28;20029;-70
2022/09/13 02:40:59;;;;;;;10.00;6.13;;;19.90;99.90;;;;;;4995404;28;20084;-71
2022/09/13 02:43:36;;;;;;;14.70;5.70;;;19.90;99.90;;;;;;4986498;28;20050;-69
2022/09/13 02:46:11;;;;;;;8.70;4.53;;;19.90;99.90;;;;;;4985497;28;20038;-71
2022/09/13 02:49:06;;;;;;;9.30;5.00;;;19.90;99.90;;;;;;4992583;28;20054;-71
2022/09/13 02:52:03;;;;;;;8.35;4.45;;;19.90;99.90;;;;;;4980058;28;20113;-71
2022/09/13 02:54:37;;;;;;;10.15;5.32;;;19.80;99.90;;;;;;4989920;28;20109;-72
2022/09/13 02:57:13;;;;;;;9.20;4.95;;;19.90;99.90;;;;;;4978620;28;20144;-71
2022/09/13 02:59:39;;;;;;;8.65;5.20;;;19.90;99.90;;;;;;4990971;28;20018;-70
2022/09/13 03:02:14;;;;;;;9.02;5.28;;;19.80;99.90;;;;;;4993566;28;20034;-72
2022/09/13 03:04:40;;;;;;;8.57;4.57;;;19.90;99.90;;;;;;4994915;28;20026;-71
2022/09/13 03:07:10;;;;;;;6.70;4.00;;;19.80;99.90;;;;;;4994634;28;20352;-71
2022/09/13 03:09:36;;;;;;;9.65;4.80;;;19.80;99.90;;;;;;4993261;28;20108;-71
2022/09/13 03:12:14;;;;;;;6.20;4.28;;;19.90;99.90;;;;;;4991160;28;20053;-70
2022/09/13 03:15:02;;;;;;;10.35;4.53;;;19.80;99.90;;;;;;4995227;28;20445;-71
2022/09/13 03:17:46;;;;;;;7.32;4.30;;;19.80;99.90;;;;;;4981528;28;20110;-70
2022/09/13 03:20:21;;;;;;;11.05;5.20;;;19.90;99.90;;;;;;4980648;28;20037;-70
2022/09/13 03:23:34;;;;;;;10.18;4.70;;;19.80;99.90;;;;;;4991818;28;20069;-71
2022/09/13 03:26:20;;;;;;;13.15;6.15;;;19.80;99.90;;;;;;4950399;29;20038;-70
2022/09/13 03:29:03;;;;;;;9.40;5.03;;;19.70;99.90;;;;;;4991673;28;20105;-70
2022/09/13 03:31:47;;;;;;;9.30;4.75;;;19.70;99.90;;;;;;4994570;28;20102;-70
2022/09/13 03:34:50;;;;;;;8.57;4.75;;;19.70;99.90;;;;;;4990146;28;20085;-71
2022/09/13 03:37:24;;;;;;;;;;;19.60;99.90;;;;;;4990264;28;20034;-70
2022/09/13 03:40:02;;;;;;;9.85;4.80;;;19.60;99.90;;;;;;4994437;28;19956;-70
2022/09/13 03:42:53;;;;;;;11.20;5.45;;;19.60;99.90;;;;;;4989830;28;20549;-70
2022/09/13 03:45:26;;;;;;;12.13;6.25;;;19.50;99.90;;;;;;4975831;28;20034;-70
2022/09/13 03:47:52;;;;;;;13.20;6.65;;;19.50;99.90;;;;;;4994237;28;20046;-70
2022/09/13 03:50:22;;;;;;;12.50;6.03;;;19.50;99.90;;;;;;4994104;28;20018;-69
2022/09/13 03:52:51;;;;;;;15.85;6.63;;;19.40;99.90;;;;;;4984276;28;20060;-71
2022/09/13 03:55:20;;;;;;;12.27;6.22;;;19.50;99.90;;;;;;4994065;28;20030;-71
2022/09/13 03:57:46;;;;;;;11.60;6.03;;;19.50;99.90;;;;;;4994034;28;20037;-69
2022/09/13 04:00:13;;;;;;;14.63;6.45;;;19.50;99.90;;;;;;4984633;28;20078;-71
2022/09/13 04:02:38;;;;;;;9.88;5.88;;;19.60;99.90;;;;;;4976594;28;20068;-70
2022/09/13 04:05:04;;;;;;;12.80;6.72;;;19.60;99.90;;;;;;4974303;28;20030;-72
2022/09/13 04:07:30;;;;;;;11.07;6.00;;;19.70;99.90;;;;;;4973824;28;20102;-71
2022/09/13 04:09:55;;;;;;;14.00;6.32;;;19.80;99.90;;;;;;4992843;28;20026;-71
2022/09/13 04:12:21;;;;;;;12.13;6.15;;;19.80;99.90;;;;;;4993778;28;20364;-70
2022/09/13 04:14:47;;;;;;;12.07;6.43;;;19.80;99.90;;;;;;4993826;28;20041;-70
2022/09/13 04:17:13;;;;;;;12.80;5.40;;;19.80;99.90;;;;;;4989241;28;20023;-69
2022/09/13 04:19:39;;;;;;;10.88;4.32;;;19.80;99.90;;;;;;4992025;28;20192;-70
2022/09/13 04:22:05;;;;;;;9.35;4.95;;;19.80;99.90;;;;;;4993599;28;20467;-69
2022/09/13 04:24:30;;;;;;;7.20;3.75;;;19.80;99.90;;;;;;4992851;28;20026;-69
2022/09/13 04:26:56;;;;;;;6.10;3.50;;;19.80;99.90;;;;;;4976936;28;20027;-71
2022/09/13 04:29:23;;;;;;;7.10;3.70;;;19.80;99.90;;;;;;4985186;28;20026;-71
2022/09/13 04:31:51;;;;;;;7.75;3.50;;;19.80;99.90;;;;;;4994655;28;20029;-71
2022/09/13 04:34:17;;;;;;;5.93;3.40;;;19.80;99.90;;;;;;4992122;28;20065;-69
2022/09/13 04:36:45;;;;;;;5.88;2.88;;;19.80;99.90;;;;;;5000557;28;20049;-70
2022/09/13 04:39:12;;;;;;;7.40;3.05;;;19.80;99.90;;;;;;4999833;28;20061;-70
2022/09/13 04:41:39;;;;;;;5.40;2.72;;;19.80;99.90;;;;;;4992821;28;20380;-71
2022/09/13 04:44:05;;;;;;;9.68;3.40;;;19.80;99.90;;;;;;4984439;28;20134;-69
2022/09/13 04:46:30;;;;;;;6.68;3.03;;;19.80;99.90;;;;;;4984776;28;20122;-70
2022/09/13 04:48:56;;;;;;;4.65;2.50;;;19.80;99.90;;;;;;4987332;28;20384;-69
2022/09/13 04:51:22;;;;;;;5.32;3.08;;;19.80;99.90;;;;;;4979697;28;20048;-71
2022/09/13 04:53:53;;;;;;;8.20;2.90;;;19.90;99.90;;;;;;4979784;28;20051;-70
2022/09/13 04:56:19;;;;;;;10.05;3.10;;;19.90;99.90;;;;;;4973692;28;20033;-70
2022/09/13 04:58:45;;;;;;;8.13;3.58;;;19.90;99.90;;;;;;4975294;28;20027;-69
2022/09/13 05:01:11;;;;;;;9.48;4.40;;;19.80;99.90;;;;;;4973886;28;20031;-70
2022/09/13 05:03:37;;;;;;;13.50;5.82;;;19.80;99.90;;;;;;4976290;28;20369;-71
2022/09/13 05:06:09;;;;;;;11.35;3.97;;;19.80;99.90;;;;;;4993202;28;20022;-71
2022/09/13 05:08:36;;;;;;;9.40;4.10;;;19.80;99.90;;;;;;4985409;28;20033;-71
2022/09/13 05:11:02;;;;;;;9.80;4.30;;;19.80;99.90;;;;;;4992791;28;20054;-72
2022/09/13 05:13:28;;;;;;;11.60;4.20;;;19.80;99.90;;;;;;4992938;28;20044;-71
2022/09/13 05:15:59;;;;;;;9.70;3.83;;;19.80;99.90;;;;;;4991613;28;20508;-71
2022/09/13 05:18:25;;;;;;;10.43;5.13;;;19.80;99.90;;;;;;4988228;28;20081;-70
2022/09/13 05:20:54;;;;;;;10.48;3.85;;;19.80;99.90;;;;;;4972927;28;20022;-72
2022/09/13 05:23:20;;;;;;;11.85;4.30;;;19.90;99.90;;;;;;4980267;28;20018;-70
2022/09/13 05:25:54;;;;;;;10.02;3.80;;;19.90;99.90;;;;;;4976548;28;20038;-71
2022/09/13 05:28:21;;;;;;;10.70;4.90;;;19.90;99.90;;;;;;4972888;28;20026;-70
2022/09/13 05:30:59;;;;;;;11.45;3.10;;;20.00;99.90;;;;;;4973138;28;20035;-70
2022/09/13 05:33:27;;;;;;;10.02;3.40;;;20.00;99.90;;;;;;4973199;28;20303;-70
2022/09/13 05:35:52;;;;;;;11.43;4.05;;;20.00;99.90;;;;;;4973945;28;20031;-71
2022/09/13 05:38:18;;;;;;;4.85;2.92;;;20.00;99.90;;;;;;4979008;28;20042;-69
2022/09/13 05:40:45;;;;;;;6.25;2.60;;;20.00;99.90;;;;;;4991629;28;20443;-70
2022/09/13 05:43:10;;;;;;;11.65;4.70;;;20.00;99.90;;;;;;4976407;28;20033;-69
2022/09/13 05:45:36;;;;;;;9.48;3.30;;;20.00;99.90;;;;;;4976978;28;20093;-70
2022/09/13 05:48:01;;;;;;;10.20;3.80;;;20.00;99.90;;;;;;4976510;28;20027;-70
2022/09/13 05:50:27;;;;;;;10.05;4.53;;;20.00;99.90;;;;;;4995413;28;20432;-71
2022/09/13 05:52:54;;;;;;;6.85;2.10;;;19.90;99.90;;;;;;4995991;28;20042;-70
2022/09/13 05:55:20;;;;;;;8.25;3.33;;;20.00;99.90;;;;;;5000129;28;20462;-71
2022/09/13 05:57:47;;;;;;;7.97;3.22;;;20.00;99.90;;;;;;4998871;28;20042;-71
2022/09/13 06:00:13;;;;;;;7.88;2.63;;;20.00;99.90;;;;;;4979795;28;20015;-71
2022/09/13 06:02:40;;;;;;;7.80;1.92;;;20.00;99.90;;;;;;4976315;28;20043;-70
2022/09/13 06:05:06;;;;;;;6.45;2.70;;;20.10;99.90;;;;;;4976876;28;20408;-69
2022/09/13 06:07:32;;;;;;;9.18;2.20;;;20.10;99.90;;;;;;4990917;28;20057;-70
2022/09/13 06:09:57;;;;;;;8.00;2.60;;;20.20;99.90;;;;;;4979638;28;20418;-71
2022/09/13 06:12:23;;;;;;;8.07;3.40;;;20.20;99.90;;;;;;4975297;28;20046;-70
2022/09/13 06:14:49;;;;;;;10.15;3.30;;;20.30;99.90;;;;;;4993341;28;20057;-71
2022/09/13 06:17:14;;;;;;;10.65;2.70;;;20.30;99.90;;;;;;4996541;28;20022;-71
2022/09/13 06:19:40;;;;;;;8.57;2.25;;;20.40;99.90;;;;;;4978054;28;20042;-70
2022/09/13 06:22:05;;;;;;;7.60;2.58;;;20.50;99.90;;;;;;4976668;28;20091;-72
2022/09/13 06:24:31;;;;;;;4.78;1.70;;;20.50;99.90;;;;;;4976706;28;20027;-70
2022/09/13 06:26:57;;;;;;;6.32;2.15;;;20.50;99.90;;;;;;4980462;28;20031;-71
2022/09/13 06:29:22;;;;;;;9.57;2.95;;;20.60;99.90;;;;;;4993664;28;20026;-71
2022/09/13 06:31:48;;;;;;;7.13;2.15;;;20.70;99.90;;;;;;4995545;28;20038;-71
2022/09/13 06:34:16;;;;;;;5.97;2.75;;;20.80;99.90;;;;;;4993325;28;20030;-71
2022/09/13 06:36:42;;;;;;;5.40;2.20;;;20.80;99.90;;;;;;4983175;28;20019;-70
2022/09/13 06:39:07;;;;;;;6.53;2.15;;;20.90;99.90;;;;;;4979742;28;20464;-73
2022/09/13 06:41:33;;;;;;;6.15;1.83;;;21.00;99.90;;;;;;4990579;28;20080;-71
2022/09/13 06:44:00;;;;;;;8.77;2.00;;;21.10;99.90;;;;;;4977872;28;20014;-71
2022/09/13 06:46:28;;;;;;;5.45;2.40;;;21.20;99.90;;;;;;4975816;28;20129;-71
2022/09/13 06:48:57;;;;;;;5.45;1.77;;;21.30;99.90;;;;;;4974797;28;20085;-71
2022/09/13 06:51:24;;;;;;;3.83;1.80;;;21.40;99.90;;;;;;4995648;28;20041;-72
2022/09/13 06:53:51;;;;;;;4.28;1.52;;;21.40;99.90;;;;;;4995472;28;20484;-72
2022/09/13 06:56:18;;;;;;;4.10;1.80;;;21.50;99.90;;;;;;4991209;28;20022;-72
2022/09/13 06:58:44;;;;;;;8.32;3.47;;;21.50;99.90;;;;;;4986284;28;20022;-72
2022/09/13 07:01:31;;;;;;;10.93;3.00;;;21.50;99.90;;;;;;4993686;28;20038;-72
2022/09/13 07:04:02;;;;;;;10.32;3.30;;;21.60;99.90;;;;;;4975712;28;20015;-73
2022/09/13 07:06:30;;;;;;;10.95;3.05;;;21.60;99.90;;;;;;4974233;28;20019;-73
2022/09/13 07:08:57;;;;;;;6.90;2.40;;;21.70;99.90;;;;;;4989501;28;20112;-70
2022/09/13 07:11:26;;;;;;;14.18;2.40;;;21.80;99.90;;;;;;4992558;28;20173;-72
2022/09/13 07:13:54;;;;;;;8.70;2.63;;;22.00;99.90;;;;;;4991280;28;20026;-72
2022/09/13 07:16:23;;;;;;;5.97;2.50;;;22.30;99.90;;;;;;4993268;28;20341;-71
2022/09/13 07:19:00;;;;;;;6.72;2.72;;;22.50;99.90;;;;;;4990427;28;20460;-70
2022/09/13 07:21:27;;;;;;;8.38;2.90;;;22.70;99.90;;;;;;4989509;28;20057;-71
2022/09/13 07:23:54;;;;;;;6.15;2.83;;;22.90;99.90;;;;;;4981123;28;20030;-72
2022/09/13 07:26:20;;;;;;;4.22;2.38;;;23.20;99.90;;;;;;4994301;28;20065;-71
2022/09/13 07:28:49;;;;;;;6.97;2.65;;;23.40;99.90;;;;;;4989956;28;20084;-71
2022/09/13 07:31:16;;;;;;;6.60;2.30;;;23.40;99.90;;;;;;4993897;28;20022;-71
2022/09/13 07:33:43;;;;;;;4.07;1.45;;;23.30;99.90;;;;;;4992141;28;20026;-73
2022/09/13 07:36:10;;;;;;;8.45;2.58;;;23.10;99.90;;;;;;4994478;28;20026;-73
2022/09/13 07:38:41;;;;;;;8.75;2.30;;;23.00;99.90;;;;;;4989951;28;20030;-71
2022/09/13 07:41:11;;;;;;;4.20;1.92;;;23.00;99.90;;;;;;4994242;28;20117;-71
2022/09/13 07:43:37;;;;;;;7.13;2.10;;;22.90;99.90;;;;;;4987365;28;20148;-72
2022/09/13 07:46:08;;;;;;;4.70;1.83;;;22.90;99.90;;;;;;4995368;28;20058;-71
2022/09/13 07:48:36;;;;;;;3.35;1.55;;;22.90;99.90;;;;;;4995822;28;20535;-72
2022/09/13 07:51:11;;;;;;;7.13;2.17;;;23.00;99.90;;;;;;4990480;28;20030;-72
2022/09/13 07:53:38;;;;;;;4.85;1.35;;;23.40;99.90;;;;;;4993447;28;20073;-71
2022/09/13 07:56:10;;;;;;;4.97;1.50;;;24.00;99.90;;;;;;4993405;28;20026;-72
2022/09/13 07:58:37;;;;;;;2.05;1.20;;;24.30;99.90;;;;;;4980014;28;20482;-72
2022/09/13 08:01:10;;;;;;;3.67;1.33;;;24.50;99.90;;;;;;4989824;28;20075;-71
2022/09/13 08:03:35;;;;;;;6.25;1.30;;;24.50;99.90;;;;;;4978913;28;20026;-72
2022/09/13 08:06:02;;;;;;;5.15;1.52;;;24.50;99.90;;;;;;4993487;28;20027;-70
2022/09/13 08:08:29;;;;;;;4.82;1.10;;;24.60;99.90;;;;;;4998843;28;20046;-71
2022/09/13 08:10:54;;;;;;;6.15;1.90;;;24.70;99.90;;;;;;4993409;28;20050;-72
2022/09/13 08:13:20;;;;;;;8.00;1.70;;;24.50;99.90;;;;;;4992010;28;20026;-71
2022/09/13 08:15:48;;;;;;;6.35;1.35;;;24.30;99.90;;;;;;4992255;28;20037;-73
2022/09/13 08:18:15;;;;;;;5.60;1.75;;;24.10;99.90;;;;;;4990386;28;20022;-72
2022/09/13 08:20:41;;;;;;;5.78;1.50;;;24.20;99.90;;;;;;4990586;28;20049;-72
2022/09/13 08:23:08;;;;;;;3.78;1.60;;;24.40;99.90;;;;;;4984679;28;20121;-72
2022/09/13 08:25:38;;;;;;;7.60;2.10;;;24.90;99.90;;;;;;4987701;28;20032;-72
2022/09/13 08:28:09;;;;;;;5.80;1.83;;;25.30;99.90;;;;;;4993480;28;20085;-72
2022/09/13 08:30:36;;;;;;;4.13;1.52;;;25.30;99.90;;;;;;4993304;28;20095;-74
2022/09/13 08:33:03;;;;;;;6.65;1.45;;;25.40;99.90;;;;;;4991622;28;20046;-70
2022/09/13 08:35:31;;;;;;;4.55;1.27;;;25.50;99.90;;;;;;4989224;28;20023;-72
2022/09/13 08:37:57;;;;;;;4.13;1.40;;;26.00;99.50;;;;;;4986899;28;20427;-71
2022/09/13 08:40:24;;;;;;;2.58;1.25;;;26.40;98.70;;;;;;4985992;28;20026;-73
2022/09/13 08:43:08;;;;;;;4.32;1.30;;;26.60;98.00;;;;;;4993208;28;20037;-72
2022/09/13 08:45:34;;;;;;;2.22;0.82;;;26.70;97.50;;;;;;4984282;28;20034;-71
2022/09/13 08:48:13;;;;;;;4.47;1.08;;;27.30;95.80;;;;;;4991660;28;20022;-71
2022/09/13 08:50:41;;;;;;;4.85;1.20;;;27.60;95.50;;;;;;4992407;28;20085;-72
2022/09/13 08:53:21;;;;;;;2.97;1.20;;;27.80;94.90;;;;;;4992441;28;20070;-73
2022/09/13 08:55:56;;;;;;;4.78;0.95;;;28.00;94.50;;;;;;4990437;28;20037;-72
2022/09/13 08:58:45;;;;;;;4.95;1.60;;;28.40;93.40;;;;;;4992942;28;20030;-71
2022/09/13 09:01:17;;;;;;;6.82;1.73;;;29.00;93.00;;;;;;4991305;28;20041;-71
2022/09/13 09:03:55;;;;;;;6.38;1.20;;;29.30;92.30;;;;;;4991455;28;20101;-72
2022/09/13 09:06:21;;;;;;;8.38;1.80;;;29.50;91.50;;;;;;4987401;28;20037;-71
2022/09/13 09:09:07;;;;;;;5.50;1.40;;;29.40;91.70;;;;;;4988824;28;20519;-69
2022/09/13 09:12:14;;;;;;;5.45;1.88;;;29.50;91.60;;;;;;4974039;28;20054;-70
2022/09/13 09:14:47;;;;;;;4.85;1.65;;;29.80;91.10;;;;;;4981231;28;20042;-72
2022/09/13 09:17:46;;;;;;;5.85;1.63;;;29.90;90.60;;;;;;4990745;28;20023;-71
2022/09/13 09:20:30;;;;;;;3.85;1.30;;;29.40;90.80;;;;;;4985741;28;20727;-73
2022/09/13 09:23:01;;;;;;;8.77;1.33;;;28.90;91.20;;;;;;4992556;28;20030;-71
2022/09/13 09:25:27;;;;;;;5.80;1.52;;;28.50;91.30;;;;;;4990618;28;20066;-72
2022/09/13 09:27:53;;;;;;;5.75;1.27;;;28.50;91.40;;;;;;4986061;28;20035;-71
2022/09/13 09:30:19;;;;;;;2.53;1.00;;;28.50;91.10;;;;;;4987589;28;20077;-71
2022/09/13 09:32:47;;;;;;;6.88;1.15;;;28.70;91.00;;;;;;4992442;28;20043;-71
2022/09/13 09:35:28;;;;;;;6.28;1.35;;;29.20;90.90;;;;;;4991135;28;20022;-70
2022/09/13 09:38:13;;;;;;;6.70;1.20;;;29.80;90.10;;;;;;4992790;28;20037;-70
2022/09/13 09:40:39;;;;;;;3.45;1.00;;;30.50;88.80;;;;;;4992248;28;20030;-72
2022/09/13 09:43:22;;;;;;;2.83;0.82;;;31.30;85.90;;;;;;4984166;28;20023;-70
2022/09/13 09:45:51;;;;;;;3.33;1.15;;;31.70;84.70;;;;;;4979992;28;20419;-71
2022/09/13 09:48:22;;;;;;;6.43;1.00;;;32.20;83.40;;;;;;4990223;28;20100;-70
2022/09/13 09:50:53;;;;;;;4.80;1.33;;;32.40;82.30;;;;;;4985480;28;20038;-73
2022/09/13 09:53:35;;;;;;;3.10;1.00;;;32.70;81.20;;;;;;4978898;28;20133;-71
2022/09/13 09:56:11;;;;;;;4.43;0.80;;;33.00;79.30;;;;;;4975664;28;20045;-72
2022/09/13 09:58:41;;;;;;;3.20;0.82;;;33.00;78.80;;;;;;4986946;28;20027;-70
2022/09/13 10:01:22;;;;;;;3.00;1.23;;;32.90;78.90;;;;;;4980655;28;20030;-70
2022/09/13 10:03:53;;;;;;;;;;;32.70;78.10;;;;;;4987862;28;20125;-70
2022/09/13 10:06:27;;;;;;;5.18;1.10;;;32.50;78.30;;;;;;4980964;28;19916;-72
2022/09/13 10:09:02;;;;;;;3.05;1.20;;;32.30;78.80;;;;;;4986626;28;20018;-72
2022/09/13 10:11:54;;;;;;;5.35;1.13;;;32.30;79.00;;;;;;4983303;28;20050;-71
2022/09/13 10:14:38;;;;;;;5.72;1.10;;;32.40;77.70;;;;;;4974307;28;20098;-71
2022/09/13 10:17:24;;;;;;;4.03;1.30;;;32.30;77.70;;;;;;4988082;28;20492;-71
2022/09/13 10:20:00;;;;;;;5.40;1.52;;;32.50;77.70;;;;;;4980061;28;20034;-71
2022/09/13 10:22:27;;;;;;;5.55;1.50;;;32.70;77.20;;;;;;4984068;28;20030;-71
2022/09/13 10:24:53;;;;;;;4.78;1.40;;;32.70;76.20;;;;;;4993921;28;20038;-70
2022/09/13 10:27:38;;;;;;;3.55;1.50;;;32.60;76.10;;;;;;4995202;28;20360;-69
2022/09/13 10:30:05;;;;;;;7.03;1.48;;;32.40;75.80;;;;;;4980167;28;20035;-72
2022/09/13 10:32:32;;;;;;;7.07;1.67;;;32.10;75.90;;;;;;4982510;28;20031;-70
2022/09/13 10:35:15;;;;;;;7.13;1.20;;;32.00;76.90;;;;;;4985600;28;20031;-70
2022/09/13 10:37:42;;;;;;;3.67;1.13;;;32.00;76.60;;;;;;4984915;28;20109;-70
2022/09/13 10:40:25;;;;;;;7.90;1.60;;;32.20;75.90;;;;;;4984913;28;20049;-68
2022/09/13 10:42:59;;;;;;;6.70;1.48;;;32.00;75.50;;;;;;4978107;28;20030;-70
2022/09/13 10:45:28;;;;;;;7.75;1.63;;;31.80;75.70;;;;;;4975088;28;20591;-70
2022/09/13 10:48:20;;;;;;;7.68;1.65;;;31.80;75.90;;;;;;4983708;28;20459;-70
2022/09/13 10:51:03;;;;;;;9.18;2.20;;;32.00;74.80;;;;;;4974779;28;20523;-71
2022/09/13 10:53:39;;;;;;;5.45;1.40;;;32.30;74.80;;;;;;4991124;28;20061;-71
2022/09/13 10:56:23;;;;;;;7.50;1.38;;;32.70;74.00;;;;;;4985150;28;20077;-73
2022/09/13 10:58:49;;;;;;;7.85;1.20;;;32.80;74.20;;;;;;4988596;28;20039;-71
2022/09/13 11:01:43;;;;;;;3.67;1.17;;;32.80;72.30;;;;;;4989227;28;20357;-72
2022/09/13 11:04:11;;;;;;;6.68;1.27;;;32.70;72.50;;;;;;4995633;28;20026;-71
2022/09/13 11:06:43;;;;;;;3.63;1.17;;;32.70;72.30;;;;;;4989032;28;20337;-70
2022/09/13 11:09:17;;;;;;;5.20;1.40;;;32.70;71.70;;;;;;4980327;28;20022;-72
2022/09/13 11:12:03;;;;;;;5.68;1.40;;;32.70;71.90;;;;;;4983269;28;20058;-71
2022/09/13 11:15:01;;;;;;;4.75;1.30;;;32.90;71.70;;;;;;4988331;28;20112;-72
2022/09/13 11:18:17;;;;;;;6.20;1.48;;;33.20;71.70;;;;;;4982885;28;20022;-70
2022/09/13 11:20:56;;;;;;;6.85;1.23;;;33.50;70.60;;;;;;4968318;28;20113;-71
2022/09/13 11:23:36;;;;;;;5.35;1.08;;;33.60;70.10;;;;;;4986013;28;20724;-71
2022/09/13 11:26:22;;;;;;;3.65;0.95;;;33.20;69.60;;;;;;4982963;28;20018;-70
2022/09/13 11:29:00;;;;;;;4.63;0.95;;;32.70;70.60;;;;;;4982901;28;20037;-70
2022/09/13 11:31:37;;;;;;;5.55;1.15;;;32.60;70.90;;;;;;4980156;28;20042;-71
2022/09/13 11:34:22;;;;;;;6.65;1.13;;;32.90;70.70;;;;;;4984484;28;20111;-72
2022/09/13 11:37:29;;;;;;;8.10;1.20;;;33.00;70.30;;;;;;4975821;28;20046;-70
2022/09/13 11:40:28;;;;;;;3.63;1.02;;;33.50;68.80;;;;;;4952275;29;20356;-71
2022/09/13 11:43:37;;;;;;;4.60;0.90;;;33.90;67.90;;;;;;4987677;28;20036;-72
2022/09/13 11:46:30;;;;;;;4.10;0.75;;;34.50;67.10;;;;;;4969551;28;20039;-72
2022/09/13 11:49:26;;;;;;;3.47;0.63;;;34.90;66.60;;;;;;4991155;28;20072;-71
2022/09/13 11:51:52;;;;;;;2.22;0.88;;;35.30;65.20;;;;;;4991894;28;20045;-71
2022/09/13 11:54:55;;;;;;;4.40;0.80;;;35.70;65.20;;;;;;4991539;28;20030;-71
2022/09/13 11:57:28;;;;;;;6.03;0.80;;;35.90;64.70;;;;;;4989398;28;20026;-71
2022/09/13 12:00:07;;;;;;;4.82;0.88;;;35.80;63.30;;;;;;4979716;28;20034;-72
2022/09/13 12:02:56;;;;;;;4.43;1.10;;;35.30;63.50;;;;;;4982116;28;20069;-69
2022/09/13 12:05:26;;;;;;;7.22;1.10;;;34.60;64.20;;;;;;4982774;28;20034;-71
2022/09/13 12:08:09;;;;;;;5.18;1.02;;;33.90;65.20;;;;;;4985853;28;20026;-71
2022/09/13 12:10:58;;;;;;;6.50;1.40;;;32.90;67.20;;;;;;4987675;28;20068;-72
2022/09/13 12:13:31;;;;;;;3.97;1.10;;;31.80;69.30;;;;;;4982447;28;20631;-71
2022/09/13 12:16:01;;;;;;;9.18;1.48;;;31.20;70.00;;;;;;4989559;28;20022;-69
2022/09/13 12:18:49;;;;;;;5.95;1.15;;;31.00;71.00;;;;;;4991556;28;20035;-70
2022/09/13 12:21:26;;;;;;;6.18;1.38;;;30.90;70.40;;;;;;4977738;28;20353;-71
2022/09/13 12:24:13;;;;;;;5.40;0.95;;;30.70;71.40;;;;;;4989277;28;20416;-72
2022/09/13 12:26:48;;;;;;;5.47;1.75;;;30.70;70.90;;;;;;4986127;28;20053;-71
2022/09/13 12:29:23;;;;;;;4.15;1.17;;;30.80;71.60;;;;;;4980865;28;20028;-70
2022/09/13 12:31:48;;;;;;;4.72;1.20;;;31.40;71.50;;;;;;4984339;28;20050;-70
2022/09/13 12:34:31;;;;;;;2.25;0.50;;;32.20;70.30;;;;;;4988187;28;20018;-71
2022/09/13 12:37:21;;;;;;;5.20;0.98;;;32.80;67.80;;;;;;4980152;28;20358;-71
2022/09/13 12:40:28;;;;;;;3.22;1.10;;;33.00;68.30;;;;;;4987646;28;20045;-71
2022/09/13 12:43:00;;;;;;;4.78;1.00;;;33.00;68.80;;;;;;4974217;28;20042;-72
2022/09/13 12:45:32;;;;;;;3.97;1.35;;;33.30;68.60;;;;;;4987885;28;20045;-72
2022/09/13 12:48:34;;;;;;;3.50;0.82;;;33.30;68.40;;;;;;4992715;28;20492;-71
2022/09/13 12:51:18;;;;;;;;;;;33.40;67.40;;;;;;4986043;28;20030;-71
2022/09/13 12:54:21;;;;;;;4.85;0.80;;;33.30;67.10;;;;;;4984818;28;20009;-70
2022/09/13 12:57:14;;;;;;;2.38;0.70;;;32.70;67.20;;;;;;4987564;28;20083;-70
2022/09/13 13:00:10;;;;;;;2.83;0.63;;;32.00;67.70;;;;;;4978682;28;20015;-70
2022/09/13 13:02:49;;;;;;;7.22;1.13;;;31.30;68.50;;;;;;4986645;28;20027;-70
2022/09/13 13:05:19;;;;;;;7.97;0.88;;;30.50;69.30;;;;;;4988616;28;20053;-72
2022/09/13 13:07:58;;;;;;;4.25;0.85;;;30.00;70.00;;;;;;4975757;28;20027;-70
2022/09/13 13:10:31;;;;;;;4.88;0.90;;;29.50;71.80;;;;;;4976142;28;20113;-71
2022/09/13 13:13:14;;;;;;;4.72;0.98;;;29.30;72.60;;;;;;4981908;28;20165;-71
2022/09/13 13:15:43;;;;;;;7.93;1.20;;;28.90;73.90;;;;;;4977340;28;20031;-71